sensor_id;sensor_type;location;lat;lon;timestamp;temperature;humidity
55771;DHT22;41687;-33.234;-60.334;2023-03-23T00:01:21;19.60;99.90
55771;DHT22;41687;-33.234;-60.334;2023-03-23T00:03:53;19.60;99.90
55771;DHT22;41687;-33.234;-60.334;2023-03-23T00:06:26;19.60;99.90
55771;DHT22;41687;-33.234;-60.334;2023-03-23T00:08:55;19.60;99.90
55771;DHT22;41687;-33.234;-60.334;2023-03-23T00:11:28;19.60;99.90
55771;DHT22;41687;-33.234;-60.334;2023-03-23T00:13:58;19.60;99.90
55771;DHT22;41687;-33.234;-60.334;2023-03-23T00:16:32;19.50;99.90
55771;DHT22;41687;-33.234;-60.334;2023-03-23T00:19:09;19.60;99.90
55771;DHT22;41687;-33.234;-60.334;2023-03-23T00:21:38;19.60;99.90
55771;DHT22;41687;-33.234;-60.334;2023-03-23T00:24:11;19.60;99.90
55771;DHT22;41687;-33.234;-60.334;2023-03-23T00:26:41;19.50;99.90
55771;DHT22;41687;-33.234;-60.334;2023-03-23T00:29:17;19.60;99.90
55771;DHT22;41687;-33.234;-60.334;2023-03-23T00:31:51;19.50;99.90
55771;DHT22;41687;-33.234;-60.334;2023-03-23T00:34:21;19.50;99.90
55771;DHT22;41687;-33.234;-60.334;2023-03-23T00:36:52;19.60;99.90
55771;DHT22;41687;-33.234;-60.334;2023-03-23T00:39:24;19.60;99.90
55771;DHT22;41687;-33.234;-60.334;2023-03-23T00:41:55;19.60;99.90
55771;DHT22;41687;-33.234;-60.334;2023-03-23T00:44:32;19.50;99.90
55771;DHT22;41687;-33.234;-60.334;2023-03-23T00:47:03;19.50;99.90
55771;DHT22;41687;-33.234;-60.334;2023-03-23T00:49:31;19.50;99.90
55771;DHT22;41687;-33.234;-60.334;2023-03-23T00:52:03;19.50;99.90
55771;DHT22;41687;-33.234;-60.334;2023-03-23T00:54:33;19.50;99.90
55771;DHT22;41687;-33.234;-60.334;2023-03-23T00:57:01;19.50;99.90
55771;DHT22;41687;-33.234;-60.334;2023-03-23T00:59:29;19.50;99.90
55771;DHT22;41687;-33.234;-60.334;2023-03-23T01:01:56;19.50;99.90
55771;DHT22;41687;-33.234;-60.334;2023-03-23T01:04:25;19.50;99.90
55771;DHT22;41687;-33.234;-60.334;2023-03-23T01:06:55;19.50;99.90
55771;DHT22;41687;-33.234;-60.334;2023-03-23T01:09:23;19.50;99.90
55771;DHT22;41687;-33.234;-60.334;2023-03-23T01:11:53;19.50;99.90
55771;DHT22;41687;-33.234;-60.334;2023-03-23T01:14:22;19.50;99.90
55771;DHT22;41687;-33.234;-60.334;2023-03-23T01:16:50;19.50;99.90
55771;DHT22;41687;-33.234;-60.334;2023-03-23T01:19:19;19.50;99.90
55771;DHT22;41687;-33.234;-60.334;2023-03-23T01:21:47;19.50;99.90
55771;DHT22;41687;-33.234;-60.334;2023-03-23T01:24:14;19.60;99.90
55771;DHT22;41687;-33.234;-60.334;2023-03-23T01:26:42;19.50;99.90
55771;DHT22;41687;-33.234;-60.334;2023-03-23T01:29:13;19.60;99.90
55771;DHT22;41687;-33.234;-60.334;2023-03-23T01:31:41;19.60;99.90
55771;DHT22;41687;-33.234;-60.334;2023-03-23T01:34:13;19.60;99.90
55771;DHT22;41687;-33.234;-60.334;2023-03-23T01:36:41;19.60;99.90
55771;DHT22;41687;-33.234;-60.334;2023-03-23T01:39:09;19.60;99.90
55771;DHT22;41687;-33.234;-60.334;2023-03-23T01:41:40;19.60;99.90
55771;DHT22;41687;-33.234;-60.334;2023-03-23T01:46:56;19.60;99.90
55771;DHT22;41687;-33.234;-60.334;2023-03-23T01:49:34;19.60;99.90
55771;DHT22;41687;-33.234;-60.334;2023-03-23T01:52:14;19.60;99.90
55771;DHT22;41687;-33.234;-60.334;2023-03-23T01:54:48;19.60;99.90
55771;DHT22;41687;-33.234;-60.334;2023-03-23T01:57:18;19.60;99.90
55771;DHT22;41687;-33.234;-60.334;2023-03-23T01:59:51;19.60;99.90
55771;DHT22;41687;-33.234;-60.334;2023-03-23T02:02:24;19.60;99.90
55771;DHT22;41687;-33.234;-60.334;2023-03-23T02:04:59;19.60;99.90
55771;DHT22;41687;-33.234;-60.334;2023-03-23T02:07:32;19.60;99.90
55771;DHT22;41687;-33.234;-60.334;2023-03-23T02:10:03;19.70;99.90
55771;DHT22;41687;-33.234;-60.334;2023-03-23T02:12:47;19.70;99.90
55771;DHT22;41687;-33.234;-60.334;2023-03-23T02:15:15;19.60;99.90
55771;DHT22;41687;-33.234;-60.334;2023-03-23T02:18:05;19.60;99.90
55771;DHT22;41687;-33.234;-60.334;2023-03-23T02:37:09;19.60;99.90
55771;DHT22;41687;-33.234;-60.334;2023-03-23T02:39:43;19.60;99.90
55771;DHT22;41687;-33.234;-60.334;2023-03-23T02:42:18;19.60;99.90
55771;DHT22;41687;-33.234;-60.334;2023-03-23T02:44:49;19.60;99.90
55771;DHT22;41687;-33.234;-60.334;2023-03-23T02:47:22;19.60;99.90
55771;DHT22;41687;-33.234;-60.334;2023-03-23T02:49:55;19.50;99.90
55771;DHT22;41687;-33.234;-60.334;2023-03-23T02:52:27;19.60;99.90
55771;DHT22;41687;-33.234;-60.334;2023-03-23T02:54:58;19.50;99.90
55771;DHT22;41687;-33.234;-60.334;2023-03-23T02:57:27;19.60;99.90
55771;DHT22;41687;-33.234;-60.334;2023-03-23T02:59:57;19.50;99.90
55771;DHT22;41687;-33.234;-60.334;2023-03-23T03:02:33;19.50;99.90
55771;DHT22;41687;-33.234;-60.334;2023-03-23T03:11:14;19.60;99.90
55771;DHT22;41687;-33.234;-60.334;2023-03-23T03:16:41;19.50;99.90
55771;DHT22;41687;-33.234;-60.334;2023-03-23T03:21:45;19.60;99.90
55771;DHT22;41687;-33.234;-60.334;2023-03-23T03:24:25;19.60;99.90
55771;DHT22;41687;-33.234;-60.334;2023-03-23T03:26:58;19.60;99.90
55771;DHT22;41687;-33.234;-60.334;2023-03-23T03:29:37;19.60;99.90
55771;DHT22;41687;-33.234;-60.334;2023-03-23T03:32:14;19.60;99.90
55771;DHT22;41687;-33.234;-60.334;2023-03-23T03:34:42;19.50;99.90
55771;DHT22;41687;-33.234;-60.334;2023-03-23T03:37:19;19.60;99.90
55771;DHT22;41687;-33.234;-60.334;2023-03-23T03:39:49;19.60;99.90
55771;DHT22;41687;-33.234;-60.334;2023-03-23T03:42:18;19.60;99.90
55771;DHT22;41687;-33.234;-60.334;2023-03-23T03:44:46;19.60;99.90
55771;DHT22;41687;-33.234;-60.334;2023-03-23T03:47:13;19.60;99.90
55771;DHT22;41687;-33.234;-60.334;2023-03-23T03:49:41;19.60;99.90
55771;DHT22;41687;-33.234;-60.334;2023-03-23T03:52:09;19.60;99.90
55771;DHT22;41687;-33.234;-60.334;2023-03-23T03:54:41;19.60;99.90
55771;DHT22;41687;-33.234;-60.334;2023-03-23T03:57:08;19.50;99.90
55771;DHT22;41687;-33.234;-60.334;2023-03-23T03:59:54;19.50;99.90
55771;DHT22;41687;-33.234;-60.334;2023-03-23T04:02:45;19.60;99.90
55771;DHT22;41687;-33.234;-60.334;2023-03-23T04:05:40;19.60;99.90
55771;DHT22;41687;-33.234;-60.334;2023-03-23T04:08:09;19.60;99.90
55771;DHT22;41687;-33.234;-60.334;2023-03-23T04:10:38;19.60;99.90
55771;DHT22;41687;-33.234;-60.334;2023-03-23T04:13:08;19.60;99.90
55771;DHT22;41687;-33.234;-60.334;2023-03-23T04:15:54;19.50;99.90
55771;DHT22;41687;-33.234;-60.334;2023-03-23T04:18:23;19.50;99.90
55771;DHT22;41687;-33.234;-60.334;2023-03-23T04:20:51;19.60;99.90
55771;DHT22;41687;-33.234;-60.334;2023-03-23T04:23:21;19.60;99.90
55771;DHT22;41687;-33.234;-60.334;2023-03-23T04:25:53;19.60;99.90
55771;DHT22;41687;-33.234;-60.334;2023-03-23T04:28:27;19.60;99.90
55771;DHT22;41687;-33.234;-60.334;2023-03-23T04:31:30;19.60;99.90
55771;DHT22;41687;-33.234;-60.334;2023-03-23T04:34:24;19.60;99.90
55771;DHT22;41687;-33.234;-60.334;2023-03-23T04:36:54;19.60;99.90
55771;DHT22;41687;-33.234;-60.334;2023-03-23T04:39:26;19.60;99.90
55771;DHT22;41687;-33.234;-60.334;2023-03-23T04:41:59;19.40;99.90
55771;DHT22;41687;-33.234;-60.334;2023-03-23T04:44:53;19.30;99.90
55771;DHT22;41687;-33.234;-60.334;2023-03-23T04:47:36;19.40;99.90
55771;DHT22;41687;-33.234;-60.334;2023-03-23T04:50:17;19.40;99.90
55771;DHT22;41687;-33.234;-60.334;2023-03-23T04:52:46;19.50;99.90
55771;DHT22;41687;-33.234;-60.334;2023-03-23T04:55:15;19.60;99.90
55771;DHT22;41687;-33.234;-60.334;2023-03-23T04:57:48;19.50;99.90
55771;DHT22;41687;-33.234;-60.334;2023-03-23T05:00:44;19.60;99.90
55771;DHT22;41687;-33.234;-60.334;2023-03-23T05:03:18;19.50;99.90
55771;DHT22;41687;-33.234;-60.334;2023-03-23T05:05:47;19.40;99.90
55771;DHT22;41687;-33.234;-60.334;2023-03-23T05:08:21;19.40;99.90
55771;DHT22;41687;-33.234;-60.334;2023-03-23T05:10:56;19.50;99.90
55771;DHT22;41687;-33.234;-60.334;2023-03-23T05:13:30;19.30;99.90
55771;DHT22;41687;-33.234;-60.334;2023-03-23T05:16:04;19.10;99.90
55771;DHT22;41687;-33.234;-60.334;2023-03-23T05:18:34;19.10;99.90
55771;DHT22;41687;-33.234;-60.334;2023-03-23T05:21:06;19.20;99.90
55771;DHT22;41687;-33.234;-60.334;2023-03-23T05:23:38;19.20;99.90
55771;DHT22;41687;-33.234;-60.334;2023-03-23T05:26:15;19.10;99.90
55771;DHT22;41687;-33.234;-60.334;2023-03-23T05:28:44;19.20;99.90
55771;DHT22;41687;-33.234;-60.334;2023-03-23T05:31:19;19.10;99.90
55771;DHT22;41687;-33.234;-60.334;2023-03-23T05:33:48;19.10;99.90
55771;DHT22;41687;-33.234;-60.334;2023-03-23T05:36:28;19.10;99.90
55771;DHT22;41687;-33.234;-60.334;2023-03-23T05:39:12;19.10;99.90
55771;DHT22;41687;-33.234;-60.334;2023-03-23T05:42:07;19.10;99.90
55771;DHT22;41687;-33.234;-60.334;2023-03-23T05:44:50;19.00;99.90
55771;DHT22;41687;-33.234;-60.334;2023-03-23T05:47:18;19.10;99.90
55771;DHT22;41687;-33.234;-60.334;2023-03-23T05:49:52;19.20;99.90
55771;DHT22;41687;-33.234;-60.334;2023-03-23T05:52:22;19.10;99.90
55771;DHT22;41687;-33.234;-60.334;2023-03-23T05:54:54;19.10;99.90
55771;DHT22;41687;-33.234;-60.334;2023-03-23T05:57:23;19.10;99.90
55771;DHT22;41687;-33.234;-60.334;2023-03-23T06:00:07;19.00;99.90
55771;DHT22;41687;-33.234;-60.334;2023-03-23T06:02:45;19.10;99.90
55771;DHT22;41687;-33.234;-60.334;2023-03-23T06:05:19;19.00;99.90
55771;DHT22;41687;-33.234;-60.334;2023-03-23T06:07:53;19.00;99.90
55771;DHT22;41687;-33.234;-60.334;2023-03-23T06:10:22;19.00;99.90
55771;DHT22;41687;-33.234;-60.334;2023-03-23T06:13:00;19.00;99.90
55771;DHT22;41687;-33.234;-60.334;2023-03-23T06:15:40;19.00;99.90
55771;DHT22;41687;-33.234;-60.334;2023-03-23T06:18:27;19.00;99.90
55771;DHT22;41687;-33.234;-60.334;2023-03-23T06:21:25;19.00;99.90
55771;DHT22;41687;-33.234;-60.334;2023-03-23T06:24:09;19.10;99.90
55771;DHT22;41687;-33.234;-60.334;2023-03-23T06:26:39;19.10;99.90
55771;DHT22;41687;-33.234;-60.334;2023-03-23T06:29:14;19.00;99.90
55771;DHT22;41687;-33.234;-60.334;2023-03-23T06:31:52;19.00;99.90
55771;DHT22;41687;-33.234;-60.334;2023-03-23T06:34:22;18.90;99.90
55771;DHT22;41687;-33.234;-60.334;2023-03-23T06:37:12;19.00;99.90
55771;DHT22;41687;-33.234;-60.334;2023-03-23T06:39:58;19.00;99.90
55771;DHT22;41687;-33.234;-60.334;2023-03-23T06:42:32;19.00;99.90
55771;DHT22;41687;-33.234;-60.334;2023-03-23T06:45:29;19.10;99.90
55771;DHT22;41687;-33.234;-60.334;2023-03-23T06:48:17;19.00;99.90
55771;DHT22;41687;-33.234;-60.334;2023-03-23T06:50:46;19.00;99.90
55771;DHT22;41687;-33.234;-60.334;2023-03-23T06:53:16;19.10;99.90
55771;DHT22;41687;-33.234;-60.334;2023-03-23T06:55:46;19.00;99.90
55771;DHT22;41687;-33.234;-60.334;2023-03-23T06:58:13;19.00;99.90
55771;DHT22;41687;-33.234;-60.334;2023-03-23T07:00:42;19.00;99.90
55771;DHT22;41687;-33.234;-60.334;2023-03-23T07:03:13;19.00;99.90
55771;DHT22;41687;-33.234;-60.334;2023-03-23T07:05:41;19.00;99.90
55771;DHT22;41687;-33.234;-60.334;2023-03-23T07:08:11;19.00;99.90
55771;DHT22;41687;-33.234;-60.334;2023-03-23T07:10:52;19.00;99.90
55771;DHT22;41687;-33.234;-60.334;2023-03-23T07:13:24;19.00;99.90
55771;DHT22;41687;-33.234;-60.334;2023-03-23T07:15:57;19.00;99.90
55771;DHT22;41687;-33.234;-60.334;2023-03-23T07:18:25;19.00;99.90
55771;DHT22;41687;-33.234;-60.334;2023-03-23T07:20:55;19.00;99.90
55771;DHT22;41687;-33.234;-60.334;2023-03-23T07:23:29;19.00;99.90
55771;DHT22;41687;-33.234;-60.334;2023-03-23T07:26:06;19.00;99.90
55771;DHT22;41687;-33.234;-60.334;2023-03-23T07:28:39;19.00;99.90
55771;DHT22;41687;-33.234;-60.334;2023-03-23T07:31:25;19.00;99.90
55771;DHT22;41687;-33.234;-60.334;2023-03-23T07:33:55;18.80;99.90
55771;DHT22;41687;-33.234;-60.334;2023-03-23T07:36:28;18.90;99.90
55771;DHT22;41687;-33.234;-60.334;2023-03-23T07:38:58;18.90;99.90
55771;DHT22;41687;-33.234;-60.334;2023-03-23T07:41:26;19.00;99.90
55771;DHT22;41687;-33.234;-60.334;2023-03-23T07:43:55;19.00;99.90
55771;DHT22;41687;-33.234;-60.334;2023-03-23T07:46:31;19.00;99.90
55771;DHT22;41687;-33.234;-60.334;2023-03-23T07:49:13;19.00;99.90
55771;DHT22;41687;-33.234;-60.334;2023-03-23T07:51:46;19.00;99.90
55771;DHT22;41687;-33.234;-60.334;2023-03-23T07:54:15;19.00;99.90
55771;DHT22;41687;-33.234;-60.334;2023-03-23T07:56:49;18.90;99.90
55771;DHT22;41687;-33.234;-60.334;2023-03-23T07:59:26;19.00;99.90
55771;DHT22;41687;-33.234;-60.334;2023-03-23T08:01:57;19.00;99.90
55771;DHT22;41687;-33.234;-60.334;2023-03-23T08:04:44;19.10;99.90
55771;DHT22;41687;-33.234;-60.334;2023-03-23T08:07:39;19.20;99.90
55771;DHT22;41687;-33.234;-60.334;2023-03-23T08:10:19;19.20;99.90
55771;DHT22;41687;-33.234;-60.334;2023-03-23T08:13:03;19.20;99.90
55771;DHT22;41687;-33.234;-60.334;2023-03-23T08:16:07;19.20;99.90
55771;DHT22;41687;-33.234;-60.334;2023-03-23T08:18:53;19.20;99.90
55771;DHT22;41687;-33.234;-60.334;2023-03-23T08:21:42;19.10;99.90
55771;DHT22;41687;-33.234;-60.334;2023-03-23T08:24:31;19.20;99.90
55771;DHT22;41687;-33.234;-60.334;2023-03-23T08:27:29;19.20;99.90
55771;DHT22;41687;-33.234;-60.334;2023-03-23T08:30:31;19.20;99.90
55771;DHT22;41687;-33.234;-60.334;2023-03-23T08:33:11;19.30;99.90
55771;DHT22;41687;-33.234;-60.334;2023-03-23T08:36:03;19.20;99.90
55771;DHT22;41687;-33.234;-60.334;2023-03-23T08:38:40;19.30;99.90
55771;DHT22;41687;-33.234;-60.334;2023-03-23T08:41:30;19.30;99.90
55771;DHT22;41687;-33.234;-60.334;2023-03-23T08:44:15;19.30;99.90
55771;DHT22;41687;-33.234;-60.334;2023-03-23T08:47:01;19.30;99.90
55771;DHT22;41687;-33.234;-60.334;2023-03-23T08:49:49;19.30;99.90
55771;DHT22;41687;-33.234;-60.334;2023-03-23T08:52:38;19.30;99.90
55771;DHT22;41687;-33.234;-60.334;2023-03-23T08:55:28;19.30;99.90
55771;DHT22;41687;-33.234;-60.334;2023-03-23T08:58:11;19.30;99.90
55771;DHT22;41687;-33.234;-60.334;2023-03-23T09:00:45;19.30;99.90
55771;DHT22;41687;-33.234;-60.334;2023-03-23T09:03:24;19.30;99.90
55771;DHT22;41687;-33.234;-60.334;2023-03-23T09:06:05;19.30;99.90
55771;DHT22;41687;-33.234;-60.334;2023-03-23T09:08:38;19.30;99.90
55771;DHT22;41687;-33.234;-60.334;2023-03-23T09:11:10;19.30;99.90
55771;DHT22;41687;-33.234;-60.334;2023-03-23T09:13:39;19.40;99.90
55771;DHT22;41687;-33.234;-60.334;2023-03-23T09:16:07;19.30;99.90
55771;DHT22;41687;-33.234;-60.334;2023-03-23T09:18:36;19.30;99.90
55771;DHT22;41687;-33.234;-60.334;2023-03-23T09:21:04;19.30;99.90
55771;DHT22;41687;-33.234;-60.334;2023-03-23T09:23:32;19.30;99.90
55771;DHT22;41687;-33.234;-60.334;2023-03-23T09:26:03;19.30;99.90
55771;DHT22;41687;-33.234;-60.334;2023-03-23T09:28:31;19.30;99.90
55771;DHT22;41687;-33.234;-60.334;2023-03-23T09:30:59;19.30;99.90
55771;DHT22;41687;-33.234;-60.334;2023-03-23T09:33:27;19.30;99.90
55771;DHT22;41687;-33.234;-60.334;2023-03-23T09:35:59;19.30;99.90
55771;DHT22;41687;-33.234;-60.334;2023-03-23T09:38:32;19.30;99.90
55771;DHT22;41687;-33.234;-60.334;2023-03-23T09:43:55;19.30;99.90
55771;DHT22;41687;-33.234;-60.334;2023-03-23T09:46:54;19.30;99.90
55771;DHT22;41687;-33.234;-60.334;2023-03-23T09:49:45;19.30;99.90
55771;DHT22;41687;-33.234;-60.334;2023-03-23T09:52:17;19.30;99.90
55771;DHT22;41687;-33.234;-60.334;2023-03-23T09:54:52;19.30;99.90
55771;DHT22;41687;-33.234;-60.334;2023-03-23T10:00:03;19.30;99.90
55771;DHT22;41687;-33.234;-60.334;2023-03-23T10:05:36;19.30;99.90
55771;DHT22;41687;-33.234;-60.334;2023-03-23T10:08:19;19.30;99.90
55771;DHT22;41687;-33.234;-60.334;2023-03-23T10:10:58;19.30;99.90
55771;DHT22;41687;-33.234;-60.334;2023-03-23T10:16:24;19.20;99.90
55771;DHT22;41687;-33.234;-60.334;2023-03-23T10:19:14;19.30;99.90
55771;DHT22;41687;-33.234;-60.334;2023-03-23T10:22:14;19.30;99.90
55771;DHT22;41687;-33.234;-60.334;2023-03-23T10:25:34;19.30;99.90
55771;DHT22;41687;-33.234;-60.334;2023-03-23T10:28:12;19.20;99.90
55771;DHT22;41687;-33.234;-60.334;2023-03-23T10:30:46;19.30;99.90
55771;DHT22;41687;-33.234;-60.334;2023-03-23T10:33:42;19.20;99.90
55771;DHT22;41687;-33.234;-60.334;2023-03-23T10:36:17;19.30;99.90
55771;DHT22;41687;-33.234;-60.334;2023-03-23T10:39:13;19.30;99.90
55771;DHT22;41687;-33.234;-60.334;2023-03-23T10:41:44;19.30;99.90
55771;DHT22;41687;-33.234;-60.334;2023-03-23T10:44:19;19.30;99.90
55771;DHT22;41687;-33.234;-60.334;2023-03-23T10:49:38;19.20;99.90
55771;DHT22;41687;-33.234;-60.334;2023-03-23T10:52:37;19.30;99.90
55771;DHT22;41687;-33.234;-60.334;2023-03-23T10:55:17;19.30;99.90
55771;DHT22;41687;-33.234;-60.334;2023-03-23T10:57:58;19.30;99.90
55771;DHT22;41687;-33.234;-60.334;2023-03-23T11:00:30;19.30;99.90
55771;DHT22;41687;-33.234;-60.334;2023-03-23T11:03:24;19.40;99.90
55771;DHT22;41687;-33.234;-60.334;2023-03-23T11:06:02;19.40;99.90
55771;DHT22;41687;-33.234;-60.334;2023-03-23T11:08:52;19.50;99.90
55771;DHT22;41687;-33.234;-60.334;2023-03-23T11:11:31;19.50;99.90
55771;DHT22;41687;-33.234;-60.334;2023-03-23T11:14:30;19.50;99.90
55771;DHT22;41687;-33.234;-60.334;2023-03-23T11:17:03;19.50;99.90
55771;DHT22;41687;-33.234;-60.334;2023-03-23T11:19:36;19.50;99.90
55771;DHT22;41687;-33.234;-60.334;2023-03-23T11:24:34;19.50;99.90
55771;DHT22;41687;-33.234;-60.334;2023-03-23T11:27:04;19.60;99.90
55771;DHT22;41687;-33.234;-60.334;2023-03-23T11:29:52;19.60;99.90
55771;DHT22;41687;-33.234;-60.334;2023-03-23T11:32:30;19.60;99.90
55771;DHT22;41687;-33.234;-60.334;2023-03-23T11:35:00;19.60;99.90
55771;DHT22;41687;-33.234;-60.334;2023-03-23T11:37:42;19.70;99.90
55771;DHT22;41687;-33.234;-60.334;2023-03-23T11:40:18;19.70;99.90
55771;DHT22;41687;-33.234;-60.334;2023-03-23T11:53:55;19.70;99.90
55771;DHT22;41687;-33.234;-60.334;2023-03-23T11:56:33;19.80;99.90
55771;DHT22;41687;-33.234;-60.334;2023-03-23T11:59:05;19.80;99.90
55771;DHT22;41687;-33.234;-60.334;2023-03-23T12:04:25;19.90;99.90
55771;DHT22;41687;-33.234;-60.334;2023-03-23T12:07:19;19.90;99.90
55771;DHT22;41687;-33.234;-60.334;2023-03-23T12:13:11;20.10;99.90
55771;DHT22;41687;-33.234;-60.334;2023-03-23T12:18:28;20.10;99.90
55771;DHT22;41687;-33.234;-60.334;2023-03-23T12:23:56;20.20;99.90
55771;DHT22;41687;-33.234;-60.334;2023-03-23T12:27:04;20.30;99.90
55771;DHT22;41687;-33.234;-60.334;2023-03-23T12:48:41;20.40;99.90
55771;DHT22;41687;-33.234;-60.334;2023-03-23T12:59:14;20.20;99.90
55771;DHT22;41687;-33.234;-60.334;2023-03-23T13:01:48;20.10;99.90
55771;DHT22;41687;-33.234;-60.334;2023-03-23T13:04:22;20.20;99.90
55771;DHT22;41687;-33.234;-60.334;2023-03-23T13:06:51;20.10;99.90
55771;DHT22;41687;-33.234;-60.334;2023-03-23T13:11:48;20.30;99.90
55771;DHT22;41687;-33.234;-60.334;2023-03-23T13:14:47;20.40;99.90
55771;DHT22;41687;-33.234;-60.334;2023-03-23T13:20:27;20.40;99.90
55771;DHT22;41687;-33.234;-60.334;2023-03-23T13:23:01;20.50;99.90
55771;DHT22;41687;-33.234;-60.334;2023-03-23T13:25:48;20.70;99.90
55771;DHT22;41687;-33.234;-60.334;2023-03-23T13:28:17;20.80;99.90
55771;DHT22;41687;-33.234;-60.334;2023-03-23T13:33:34;20.80;99.90
55771;DHT22;41687;-33.234;-60.334;2023-03-23T13:36:13;20.70;99.90
55771;DHT22;41687;-33.234;-60.334;2023-03-23T13:38:49;20.70;99.90
55771;DHT22;41687;-33.234;-60.334;2023-03-23T13:41:20;20.60;99.90
55771;DHT22;41687;-33.234;-60.334;2023-03-23T13:43:48;20.60;99.90
55771;DHT22;41687;-33.234;-60.334;2023-03-23T13:49:02;20.90;99.90
55771;DHT22;41687;-33.234;-60.334;2023-03-23T13:51:36;21.20;99.90
55771;DHT22;41687;-33.234;-60.334;2023-03-23T13:57:02;21.50;99.90
55771;DHT22;41687;-33.234;-60.334;2023-03-23T13:59:45;21.40;99.90
55771;DHT22;41687;-33.234;-60.334;2023-03-23T14:02:33;21.50;99.90
55771;DHT22;41687;-33.234;-60.334;2023-03-23T14:10:23;21.60;99.90
55771;DHT22;41687;-33.234;-60.334;2023-03-23T14:12:53;21.50;99.90
55771;DHT22;41687;-33.234;-60.334;2023-03-23T14:15:21;21.60;99.90
55771;DHT22;41687;-33.234;-60.334;2023-03-23T14:17:55;21.60;99.90
55771;DHT22;41687;-33.234;-60.334;2023-03-23T14:20:31;21.60;99.90
55771;DHT22;41687;-33.234;-60.334;2023-03-23T14:23:02;21.60;99.90
55771;DHT22;41687;-33.234;-60.334;2023-03-23T14:25:31;21.60;99.90
55771;DHT22;41687;-33.234;-60.334;2023-03-23T14:27:59;21.70;99.90
55771;DHT22;41687;-33.234;-60.334;2023-03-23T14:30:34;21.90;99.90
55771;DHT22;41687;-33.234;-60.334;2023-03-23T14:33:05;22.00;99.90
55771;DHT22;41687;-33.234;-60.334;2023-03-23T14:35:37;22.10;99.90
55771;DHT22;41687;-33.234;-60.334;2023-03-23T14:38:19;22.20;99.90
55771;DHT22;41687;-33.234;-60.334;2023-03-23T14:40:48;22.40;99.90
55771;DHT22;41687;-33.234;-60.334;2023-03-23T14:43:18;22.60;99.90
55771;DHT22;41687;-33.234;-60.334;2023-03-23T14:45:50;22.60;99.90
55771;DHT22;41687;-33.234;-60.334;2023-03-23T14:48:18;22.80;99.90
55771;DHT22;41687;-33.234;-60.334;2023-03-23T14:50:55;22.80;99.90
55771;DHT22;41687;-33.234;-60.334;2023-03-23T14:53:38;22.80;99.90
55771;DHT22;41687;-33.234;-60.334;2023-03-23T14:56:15;22.80;99.90
55771;DHT22;41687;-33.234;-60.334;2023-03-23T14:58:47;22.90;99.90
55771;DHT22;41687;-33.234;-60.334;2023-03-23T15:01:24;22.90;99.90
55771;DHT22;41687;-33.234;-60.334;2023-03-23T15:06:33;23.20;99.70
55771;DHT22;41687;-33.234;-60.334;2023-03-23T15:09:12;23.30;99.50
55771;DHT22;41687;-33.234;-60.334;2023-03-23T15:11:41;23.60;99.00
55771;DHT22;41687;-33.234;-60.334;2023-03-23T15:14:21;23.90;99.00
55771;DHT22;41687;-33.234;-60.334;2023-03-23T15:16:55;24.00;98.10
55771;DHT22;41687;-33.234;-60.334;2023-03-23T15:19:25;23.80;98.20
55771;DHT22;41687;-33.234;-60.334;2023-03-23T15:22:05;23.80;99.00
55771;DHT22;41687;-33.234;-60.334;2023-03-23T15:24:41;23.80;97.80
55771;DHT22;41687;-33.234;-60.334;2023-03-23T15:27:23;23.80;98.00
55771;DHT22;41687;-33.234;-60.334;2023-03-23T15:29:57;24.20;98.00
55771;DHT22;41687;-33.234;-60.334;2023-03-23T15:32:30;24.60;98.20
55771;DHT22;41687;-33.234;-60.334;2023-03-23T15:35:04;24.70;97.40
55771;DHT22;41687;-33.234;-60.334;2023-03-23T15:37:34;24.60;97.00
55771;DHT22;41687;-33.234;-60.334;2023-03-23T15:40:04;24.60;97.00
55771;DHT22;41687;-33.234;-60.334;2023-03-23T15:42:34;24.60;97.10
55771;DHT22;41687;-33.234;-60.334;2023-03-23T15:50:18;24.60;97.10
55771;DHT22;41687;-33.234;-60.334;2023-03-23T15:52:47;24.70;96.30
55771;DHT22;41687;-33.234;-60.334;2023-03-23T15:57:53;24.90;95.50
55771;DHT22;41687;-33.234;-60.334;2023-03-23T16:00:23;25.20;96.50
55771;DHT22;41687;-33.234;-60.334;2023-03-23T16:03:00;25.50;95.90
55771;DHT22;41687;-33.234;-60.334;2023-03-23T16:05:28;25.60;95.20
55771;DHT22;41687;-33.234;-60.334;2023-03-23T16:07:57;25.60;95.40
55771;DHT22;41687;-33.234;-60.334;2023-03-23T16:10:27;25.80;94.70
55771;DHT22;41687;-33.234;-60.334;2023-03-23T16:12:55;26.00;95.00
55771;DHT22;41687;-33.234;-60.334;2023-03-23T16:15:23;26.10;94.10
55771;DHT22;41687;-33.234;-60.334;2023-03-23T16:17:51;26.10;93.90
55771;DHT22;41687;-33.234;-60.334;2023-03-23T16:20:20;26.00;94.00
55771;DHT22;41687;-33.234;-60.334;2023-03-23T16:22:50;26.00;94.00
55771;DHT22;41687;-33.234;-60.334;2023-03-23T16:25:18;26.00;93.70
55771;DHT22;41687;-33.234;-60.334;2023-03-23T16:27:46;26.00;93.80
55771;DHT22;41687;-33.234;-60.334;2023-03-23T16:30:17;26.10;93.10
55771;DHT22;41687;-33.234;-60.334;2023-03-23T16:32:45;26.10;92.90
55771;DHT22;41687;-33.234;-60.334;2023-03-23T16:35:14;26.20;92.80
55771;DHT22;41687;-33.234;-60.334;2023-03-23T16:37:50;26.30;92.50
55771;DHT22;41687;-33.234;-60.334;2023-03-23T16:40:20;26.40;91.50
55771;DHT22;41687;-33.234;-60.334;2023-03-23T16:42:48;26.40;92.50
55771;DHT22;41687;-33.234;-60.334;2023-03-23T16:45:17;26.50;91.80
55771;DHT22;41687;-33.234;-60.334;2023-03-23T16:47:45;26.70;91.70
55771;DHT22;41687;-33.234;-60.334;2023-03-23T16:50:15;26.70;91.40
55771;DHT22;41687;-33.234;-60.334;2023-03-23T16:52:45;26.60;91.60
55771;DHT22;41687;-33.234;-60.334;2023-03-23T16:55:15;26.60;91.80
55771;DHT22;41687;-33.234;-60.334;2023-03-23T16:57:43;26.40;91.20
55771;DHT22;41687;-33.234;-60.334;2023-03-23T17:00:11;26.30;91.40
55771;DHT22;41687;-33.234;-60.334;2023-03-23T17:02:44;26.30;91.30
55771;DHT22;41687;-33.234;-60.334;2023-03-23T17:05:13;26.10;91.60
55771;DHT22;41687;-33.234;-60.334;2023-03-23T17:07:41;26.10;92.00
55771;DHT22;41687;-33.234;-60.334;2023-03-23T17:10:10;26.10;91.80
55771;DHT22;41687;-33.234;-60.334;2023-03-23T17:12:39;26.00;92.20
55771;DHT22;41687;-33.234;-60.334;2023-03-23T17:15:08;25.80;92.30
55771;DHT22;41687;-33.234;-60.334;2023-03-23T17:17:36;25.90;92.40
55771;DHT22;41687;-33.234;-60.334;2023-03-23T17:20:05;25.90;92.50
55771;DHT22;41687;-33.234;-60.334;2023-03-23T17:22:33;25.70;92.50
55771;DHT22;41687;-33.234;-60.334;2023-03-23T17:25:01;25.60;92.50
55771;DHT22;41687;-33.234;-60.334;2023-03-23T17:27:29;25.60;92.80
55771;DHT22;41687;-33.234;-60.334;2023-03-23T17:29:57;25.50;92.70
55771;DHT22;41687;-33.234;-60.334;2023-03-23T17:32:24;25.30;92.50
55771;DHT22;41687;-33.234;-60.334;2023-03-23T17:34:52;25.50;92.30
55771;DHT22;41687;-33.234;-60.334;2023-03-23T17:37:21;25.50;92.60
55771;DHT22;41687;-33.234;-60.334;2023-03-23T17:39:49;25.60;92.70
55771;DHT22;41687;-33.234;-60.334;2023-03-23T17:42:17;25.70;92.60